N G Explorer — C6WR2 — position and weather

sailwx.info

Track history (hours):
 
Tides and Currents Weather Stations Pressure Air Temp Water Temp Dewpoint Dewpoint Depression Visibility Wind Speed Wind Dir Waves Ship Positions

N G Explorer

Last reported at 2018-May-11 17:26 UTC. Time now 2018-May-27 08:13 UTC.
Position N 70°41' E 020°12'.
Warning: this ship's position is 15 days out of date.

Length 112 m; draft 4.8 m.

Type: Passenger vessel. MMSI: 309336000.

Date/timePositionNaut miles runAvg speedWind from/ knotsBaromVisibWave heightAir tempDewpointWater temp
2018-May-11 17:26N 70°41' E 020°12'614.2
2018-May-11 17:00N 70°35' E 020°14'714.3
2018-May-11 16:30N 70°28' E 020°17'714.0
2018-May-11 16:00N 70°21' E 020°19'612.2
2018-May-11 15:30N 70°15' E 020°18'3 5.2
2018-May-11 15:00N 70°13' E 020°14'612.9
2018-May-11 14:30N 70°06' E 020°12'612.0
2018-May-11 14:00N 70°01' E 020°04'612.1
2018-May-11 13:30N 69°56' E 019°54'714.2
2018-May-11 13:00N 69°51' E 019°41'714.2
2018-May-11 12:30N 69°48' E 019°22'714.4
2018-May-11 11:59N 69°45' E 019°03'712.9
2018-May-11 11:29N 69°39' E 018°52'2 3.8
2018-May-11 10:59N 69°39' E 018°58'0 0.1
2018-May-11 10:29N 69°39' E 018°58'0 0.0
2018-May-11 09:59N 69°39' E 018°58'0 0.0
2018-May-11 09:29N 69°39' E 018°58'0 0.0
2018-May-11 08:59N 69°39' E 018°58'0 0.0
2018-May-11 08:29N 69°39' E 018°58'0 0.0
2018-May-11 07:59N 69°39' E 018°58'0 0.0
2018-May-11 07:29N 69°39' E 018°58'0 0.0
2018-May-11 06:59N 69°39' E 018°58'0 0.0
2018-May-11 06:29N 69°39' E 018°58'0 0.0
2018-May-11 05:59N 69°39' E 018°58'0 0.5
2018-May-11 05:30N 69°39' E 018°59'4 6.9
2018-May-11 04:59N 69°42' E 019°04'0 0.0
2018-May-11 04:29N 69°42' E 019°04'0 0.0
2018-May-11 03:59N 69°42' E 019°04'0 0.0
2018-May-11 03:29N 69°42' E 019°04'0 0.0
2018-May-11 03:00N 69°42' E 019°04'3 5.1
2018-May-11 02:30N 69°40' E 018°60'510.7
2018-May-11 02:00N 69°35' E 018°51'5 9.7
2018-May-11 01:30N 69°33' E 018°39'510.5
2018-May-11 01:00N 69°31' E 018°25'611.9
2018-May-11 00:29N 69°31' E 018°08'612.1
2018-May-11 00:00N 69°35' E 017°56'611.7
2018-May-10 23:30N 69°40' E 017°46'612.4
2018-May-10 23:00N 69°39' E 017°29'612.4
2018-May-10 22:29N 69°37' E 017°11'612.6
2018-May-10 22:00N 69°35' E 016°54'612.3
2018-May-10 21:30N 69°33' E 016°38'612.1
2018-May-10 21:00N 69°31' E 016°22'510.5
2018-May-10 20:30N 69°29' E 016°07'2 4.3
2018-May-10 20:00N 69°28' E 016°02'3 6.7
2018-May-10 19:30N 69°25' E 015°57'1 2.0
2018-May-10 19:00N 69°26' E 015°60'3 6.3
2018-May-10 18:30N 69°25' E 016°08'712.6
2018-May-10 17:59N 69°19' E 016°14'714.1
2018-May-10 17:30N 69°12' E 016°13'814.8
2018-May-10 16:59N 69°05' E 016°10'714.1
2018-May-10 16:30N 68°58' E 016°10'714.6
2018-May-10 16:00N 68°53' E 016°25'713.2
2018-May-10 15:30N 68°49' E 016°41'714.5
2018-May-10 15:00N 68°42' E 016°41'714.7
2018-May-10 14:30N 68°35' E 016°33'611.7
2018-May-10 14:00N 68°33' E 016°18'713.6
2018-May-10 13:30N 68°28' E 016°06'815.0
2018-May-10 13:00N 68°21' E 016°01'714.7
2018-May-10 12:30N 68°14' E 016°08'714.4
2018-May-10 12:00N 68°07' E 016°09'18 2.5
2018-May-10 04:48N 67°50' E 016°28'6 8.3
2018-May-10 04:04N 67°54' E 016°16'1 7.9
2018-May-10 03:58N 67°54' E 016°14'4 7.6
2018-May-10 03:29N 67°58' E 016°14'4 8.5
2018-May-10 02:58N 68°02' E 016°10'4 7.6
2018-May-10 02:29N 68°05' E 016°09'4 7.7
2018-May-10 02:01N 68°09' E 016°10'4 7.7
2018-May-10 01:30N 68°13' E 016°09'4 7.5
2018-May-10 01:00N 68°16' E 016°04'4 7.1
2018-May-10 00:30N 68°17' E 015°55'4 7.8
2018-May-10 00:00N 68°15' E 015°45'4 7.7
2018-May-09 23:30N 68°13' E 015°36'4 7.6
2018-May-09 23:00N 68°13' E 015°26'4 7.7
2018-May-09 22:30N 68°12' E 015°16'4 7.7
2018-May-09 22:00N 68°12' E 015°05'3 6.9
2018-May-09 21:30N 68°13' E 014°56'4 7.9
2018-May-09 21:00N 68°17' E 014°58'3 6.7
2018-May-09 20:30N 68°20' E 014°58'2 4.2
2018-May-09 20:00N 68°22' E 014°57'2 3.6
2018-May-09 19:30N 68°20' E 014°59'714.3
2018-May-09 19:00N 68°13' E 014°53'612.6
2018-May-09 18:30N 68°13' E 014°37'1 1.6
2018-May-09 17:59N 68°13' E 014°34'510.0
2018-May-09 17:30N 68°11' E 014°22'611.2
2018-May-09 17:00N 68°07' E 014°11'612.2
2018-May-09 16:30N 68°05' E 013°56'713.7
2018-May-09 16:00N 68°02' E 013°40'713.8
2018-May-09 15:30N 67°58' E 013°23'713.2
2018-May-09 15:00N 67°56' E 013°07'1 0.9
2018-May-09 14:22N 67°56' E 013°06'0 0.0
2018-May-09 13:57N 67°56' E 013°06'0 0.0
2018-May-09 13:30N 67°56' E 013°06'0 0.0
2018-May-09 13:00N 67°56' E 013°06'0 0.0
2018-May-09 12:30N 67°56' E 013°06'0 0.2
2018-May-09 12:00N 67°56' E 013°06'5 9.9
2018-May-09 11:30N 67°51' E 013°03'714.9
2018-May-09 11:00N 67°45' E 012°55'714.8
2018-May-09 10:30N 67°38' E 012°45'3 6.9
2018-May-09 10:00N 67°39' E 012°36'0 0.0
2018-May-09 09:30N 67°39' E 012°36'0 0.1
2018-May-09 09:00N 67°39' E 012°36'0 0.1
2018-May-09 08:30N 67°39' E 012°36'0 0.0
2018-May-09 08:00N 67°39' E 012°36'0 0.0
2018-May-09 07:30N 67°39' E 012°36'0 0.0
2018-May-09 07:00N 67°39' E 012°36'0 0.0
2018-May-09 06:30N 67°39' E 012°36'0 0.0
2018-May-09 06:00N 67°39' E 012°36'0 0.5
2018-May-09 05:30N 67°39' E 012°37'4 7.7
2018-May-09 05:00N 67°35' E 012°36'612.9
2018-May-09 04:30N 67°30' E 012°25'4010.4
2018-May-09 00:37N 66°52' E 011°54'110.3
2018-May-09 00:28N 66°50' E 011°54'510.3
2018-May-09 00:01N 66°45' E 011°53'510.1
2018-May-08 23:30N 66°40' E 011°52'510.3
2018-May-08 23:00N 66°35' E 011°51'510.4
2018-May-08 22:30N 66°30' E 011°50'510.7
2018-May-08 22:00N 66°25' E 011°53'4 8.3
2018-May-08 21:31N 66°25' E 012°03'5 9.8
2018-May-08 21:00N 66°30' E 012°06'1 1.1
2018-May-08 20:29N 66°30' E 012°06'0 0.0
2018-May-08 19:59N 66°30' E 012°06'0 0.0
2018-May-08 19:29N 66°30' E 012°06'0 0.0
2018-May-08 18:59N 66°30' E 012°06'0 0.0
2018-May-08 18:29N 66°30' E 012°06'0 0.0
2018-May-08 17:59N 66°30' E 012°06'0 0.0
2018-May-08 17:30N 66°30' E 012°06'0 0.4
2018-May-08 17:00N 66°30' E 012°06'3 5.9
2018-May-08 16:30N 66°28' E 012°12'3 5.8
2018-May-08 16:00N 66°27' E 012°19'3 5.6
2018-May-08 15:30N 66°27' E 012°26'3 5.7
2018-May-08 15:00N 66°26' E 012°33'3 6.1
2018-May-08 14:30N 66°26' E 012°40'611.9
2018-May-08 14:00N 66°28' E 012°54'5 9.4
2018-May-08 13:29N 66°32' E 012°59'511.1
2018-May-08 13:00N 66°33' E 013°12'611.6
2018-May-08 12:29N 66°33' E 013°27'3 5.5
2018-May-08 12:00N 66°33' E 013°34'5 0.8
2018-May-08 05:52N 66°36' E 013°44'7 7.5
2018-May-08 04:54N 66°33' E 013°27'4 9.2
2018-May-08 04:30N 66°33' E 013°18'3 7.0
2018-May-08 04:00N 66°33' E 013°09'4 7.4
2018-May-08 03:30N 66°33' E 013°00'3 6.7
2018-May-08 03:00N 66°29' E 012°59'4 8.1
2018-May-08 02:30N 66°25' E 012°59'4 8.1
2018-May-08 02:00N 66°21' E 012°57'4 8.3
2018-May-08 01:30N 66°17' E 012°55'4 8.0
2018-May-08 01:00N 66°13' E 012°53'4 8.0
2018-May-08 00:30N 66°09' E 012°50'4 8.2
2018-May-08 00:00N 66°06' E 012°44'4 8.2
2018-May-07 23:30N 66°03' E 012°37'4 8.1
2018-May-07 23:00N 65°60' E 012°31'4 8.5
2018-May-07 22:30N 65°56' E 012°25'4 8.1
2018-May-07 22:00N 65°53' E 012°22'4 8.4
2018-May-07 21:30N 65°48' E 012°21'5 8.7
2018-May-07 20:59N 65°44' E 012°17'4 7.9
2018-May-07 20:30N 65°43' E 012°08'5 8.6
2018-May-07 19:59N 65°44' E 011°57'0 0.2
2018-May-07 19:29N 65°44' E 011°57'0 0.0
2018-May-07 18:59N 65°44' E 011°57'0 0.0
2018-May-07 18:29N 65°44' E 011°57'0 0.1
2018-May-07 17:59N 65°44' E 011°57'0 0.0
2018-May-07 17:29N 65°44' E 011°57'0 0.1
2018-May-07 16:59N 65°44' E 011°57'0 0.0
2018-May-07 16:29N 65°44' E 011°57'0 0.0
2018-May-07 15:59N 65°44' E 011°57'0 0.1
2018-May-07 15:29N 65°44' E 011°57'0 0.0
2018-May-07 14:59N 65°44' E 011°57'0 0.0
2018-May-07 14:29N 65°44' E 011°57'0 0.1
2018-May-07 13:59N 65°44' E 011°57'0 0.1
2018-May-07 13:29N 65°44' E 011°57'0 0.1
2018-May-07 12:59N 65°44' E 011°57'0 0.0
2018-May-07 12:30N 65°44' E 011°57'0 0.1
2018-May-07 11:59N 65°44' E 011°57'0 0.1
2018-May-07 11:30N 65°44' E 011°57'0 0.0
2018-May-07 11:00N 65°44' E 011°57'4 8.8
2018-May-07 10:30N 65°43' E 012°08'612.5
2018-May-07 10:00N 65°37' E 012°15'713.7
2018-May-07 09:30N 65°32' E 012°24'714.0
2018-May-07 09:00N 65°27' E 012°37'4 1.9
2018-May-07 06:58N 65°28' E 012°46'0 0.0
2018-May-07 06:28N 65°28' E 012°46'0 0.0
2018-May-07 05:58N 65°28' E 012°46'0 0.0
2018-May-07 05:16N 65°28' E 012°46'0 1.0
2018-May-07 04:55N 65°28' E 012°46'4 9.8
2018-May-07 04:30N 65°27' E 012°36'612.1
2018-May-07 03:59N 65°31' E 012°25'511.0
2018-May-07 03:30N 65°36' E 012°18'510.2
2018-May-07 03:00N 65°34' E 012°07'510.4
2018-May-07 02:28N 65°30' E 011°59'5 9.8
2018-May-07 02:00N 65°25' E 011°57'5 9.6
2018-May-07 01:31N 65°21' E 012°03'611.0
2018-May-07 01:01N 65°16' E 011°57'611.1
2018-May-07 00:30N 65°11' E 011°51'511.0
2018-May-07 00:01N 65°06' E 011°48'611.1
2018-May-06 23:31N 65°01' E 011°41'510.9
2018-May-06 23:00N 64°57' E 011°31'611.3
2018-May-06 22:30N 64°54' E 011°20'511.0
2018-May-06 22:01N 64°50' E 011°11'612.0
2018-May-06 21:30N 64°46' E 011°01'511.0
2018-May-06 21:00N 64°43' E 010°51'611.6
2018-May-06 20:30N 64°39' E 010°41'4 7.7
2018-May-06 20:00N 64°36' E 010°34'4 7.6
2018-May-06 19:31N 64°34' E 010°28'4 7.6
2018-May-06 18:59N 64°30' E 010°23'612.6
2018-May-06 18:30N 64°24' E 010°26'611.4
2018-May-06 18:00N 64°19' E 010°24'611.6
2018-May-06 17:30N 64°14' E 010°15'714.1
2018-May-06 17:00N 64°08' E 010°06'611.1
2018-May-06 16:30N 64°03' E 010°03'611.5
2018-May-06 16:00N 63°59' E 009°54'713.8
2018-May-06 15:31N 63°53' E 009°45'714.7
2018-May-06 15:00N 63°47' E 009°34'611.8
2018-May-06 14:30N 63°44' E 009°23'611.4
2018-May-06 14:00N 63°41' E 009°12'713.7
2018-May-06 13:30N 63°41' E 008°56'916.1
2018-May-06 12:58N 63°39' E 008°37'715.5
2018-May-06 12:30N 63°38' E 008°22'814.8
2018-May-06 12:00N 63°34' E 008°06'714.0
2018-May-06 11:30N 63°30' E 007°54'5 9.4
2018-May-06 11:00N 63°26' E 007°49'0 0.1
2018-May-06 10:28N 63°26' E 007°49'0 0.0
2018-May-06 09:58N 63°26' E 007°49'0 0.0
2018-May-06 09:28N 63°26' E 007°49'0 0.0
2018-May-06 08:58N 63°26' E 007°49'0 0.0
2018-May-06 08:28N 63°26' E 007°49'0 0.0
2018-May-06 07:58N 63°26' E 007°49'0 0.0
2018-May-06 07:28N 63°26' E 007°49'0 0.0
2018-May-06 06:58N 63°26' E 007°49'0 0.0
2018-May-06 06:28N 63°26' E 007°49'0 0.0
2018-May-06 06:00N 63°26' E 007°49'3 6.0
2018-May-06 05:30N 63°24' E 007°44'612.4
2018-May-06 05:01N 63°19' E 007°37'612.8
2018-May-06 04:30N 63°13' E 007°44'611.1
2018-May-06 04:00N 63°08' E 007°40'3 5.2
2018-May-06 03:30N 63°07' E 007°35'3 6.0
2018-May-06 03:00N 63°05' E 007°30'4 7.6
2018-May-06 02:30N 63°04' E 007°22'4 7.2
2018-May-06 02:00N 63°03' E 007°15'4 7.1
2018-May-06 01:30N 63°01' E 007°07'3 7.0
2018-May-06 01:00N 63°00' E 006°60'4 6.9
2018-May-06 00:30N 62°59' E 006°53'3 6.7
2018-May-06 00:00N 62°56' E 006°49'3 7.0
2018-May-05 23:30N 62°53' E 006°44'4 7.1
2018-May-05 23:00N 62°50' E 006°40'4 6.9
2018-May-05 22:29N 62°47' E 006°36'3 7.0
2018-May-05 22:00N 62°44' E 006°32'4 7.3
2018-May-05 21:30N 62°41' E 006°27'4 7.2
2018-May-05 21:00N 62°38' E 006°23'510.6
2018-May-05 20:30N 62°35' E 006°14'5 9.2
2018-May-05 20:00N 62°31' E 006°09'4 7.3
2018-May-05 19:30N 62°28' E 006°04'815.1
2018-May-05 19:00N 62°27' E 005°48'815.6
2018-May-05 18:30N 62°26' E 005°31'816.2
2018-May-05 18:00N 62°22' E 005°16'816.1
2018-May-05 17:30N 62°17' E 005°02'815.0
2018-May-05 17:00N 62°11' E 004°52'611.4
2018-May-05 16:30N 62°05' E 004°57'612.5
2018-May-05 16:00N 62°02' E 005°09'612.2
2018-May-05 15:30N 61°56' E 005°08'5 9.3
2018-May-05 15:00N 61°54' E 005°17'713.5
2018-May-05 14:29N 61°55' E 005°31'714.0
2018-May-05 14:00N 61°53' E 005°45'713.0
2018-May-05 13:30N 61°52' E 005°58'714.3
2018-May-05 13:00N 61°51' E 006°13'714.2
2018-May-05 12:30N 61°49' E 006°28'10 1.3
2018-May-05 04:34N 61°52' E 006°49'810.6
2018-May-05 03:51N 61°51' E 006°33'512.2
2018-May-05 03:28N 61°50' E 006°23'613.5
2018-May-05 03:00N 61°51' E 006°10'713.7
2018-May-05 02:29N 61°52' E 005°55'612.2
2018-May-05 02:00N 61°53' E 005°43'713.6
2018-May-05 01:30N 61°55' E 005°29'713.4
2018-May-05 00:59N 61°54' E 005°15'3 5.9
2018-May-05 00:30N 61°51' E 005°16'613.1
2018-May-05 00:00N 61°48' E 005°05'713.2
2018-May-04 23:30N 61°42' E 004°58'713.0
2018-May-04 22:59N 61°35' E 004°57'612.3
2018-May-04 22:30N 61°29' E 004°59'612.2
2018-May-04 22:00N 61°23' E 005°01'510.4
2018-May-04 21:29N 61°18' E 004°60'510.5
2018-May-04 21:00N 61°13' E 004°59'714.5
2018-May-04 20:29N 61°05' E 005°01'815.6
2018-May-04 19:58N 61°00' E 004°49'714.6
2018-May-04 19:30N 60°53' E 004°46'714.7
2018-May-04 19:00N 60°46' E 004°46'816.0
2018-May-04 18:30N 60°39' E 004°54'714.4
2018-May-04 18:00N 60°33' E 005°01'815.6
2018-May-04 17:30N 60°28' E 005°15'5 9.1
2018-May-04 16:59N 60°24' E 005°19'0 0.0
2018-May-04 16:29N 60°24' E 005°19'0 0.0
2018-May-04 15:59N 60°24' E 005°19'0 0.0
2018-May-04 15:29N 60°24' E 005°19'0 0.0
2018-May-04 14:59N 60°24' E 005°19'0 0.0
2018-May-04 14:29N 60°24' E 005°19'0 0.0
2018-May-04 13:59N 60°24' E 005°19'0 0.0
2018-May-04 13:29N 60°24' E 005°19'0 0.0
2018-May-04 12:59N 60°24' E 005°19'0 0.0
2018-May-04 12:29N 60°24' E 005°19'0 0.0
2018-May-04 11:59N 60°24' E 005°19'0 0.0
2018-May-04 11:29N 60°24' E 005°19'0 0.0
2018-May-04 10:59N 60°24' E 005°19'0 0.0
2018-May-04 10:29N 60°24' E 005°19'0 0.0
2018-May-04 09:59N 60°24' E 005°19'0 0.0
2018-May-04 09:29N 60°24' E 005°19'0 0.0
2018-May-04 08:59N 60°24' E 005°19'0 0.0
2018-May-04 08:29N 60°24' E 005°19'0 0.0
2018-May-04 07:59N 60°24' E 005°19'0 0.0
2018-May-04 07:29N 60°24' E 005°19'0 0.0
2018-May-04 06:59N 60°24' E 005°19'0 0.0
2018-May-04 06:29N 60°24' E 005°19'0 0.1
2018-May-04 05:59N 60°24' E 005°19'0 0.0
2018-May-04 05:29N 60°24' E 005°19'0 0.0
2018-May-04 04:59N 60°24' E 005°19'0 0.0
2018-May-04 04:29N 60°24' E 005°19'0 0.0
2018-May-04 03:59N 60°24' E 005°19'0 0.0
2018-May-04 03:29N 60°24' E 005°19'0 0.0
2018-May-04 02:59N 60°24' E 005°19'0 0.0
2018-May-04 02:29N 60°24' E 005°19'0 0.0
2018-May-04 01:59N 60°24' E 005°19'0 0.0
2018-May-04 01:29N 60°24' E 005°19'0 0.0
2018-May-04 00:59N 60°24' E 005°19'0 0.0
2018-May-04 00:29N 60°24' E 005°19'0 0.0
2018-May-03 23:59N 60°24' E 005°19'0 0.0
2018-May-03 23:28N 60°24' E 005°19'0 0.0
2018-May-03 22:59N 60°24' E 005°19'0 0.0
2018-May-03 22:28N 60°24' E 005°19'0 0.0
2018-May-03 21:58N 60°24' E 005°19'0 0.0
2018-May-03 21:28N 60°24' E 005°19'0 0.0
2018-May-03 20:58N 60°24' E 005°19'0 0.0
2018-May-03 20:28N 60°24' E 005°19'0 0.0
2018-May-03 19:58N 60°24' E 005°19'0 0.0
2018-May-03 19:28N 60°24' E 005°19'0 0.0
2018-May-03 18:59N 60°24' E 005°19'0 0.0
2018-May-03 18:28N 60°24' E 005°19'0 0.0
2018-May-03 17:58N 60°24' E 005°19'0 0.0
2018-May-03 17:28N 60°24' E 005°19'0 0.0
2018-May-03 16:55N 60°24' E 005°19'0 0.0
2018-May-03 16:28N 60°24' E 005°19'0 0.0
2018-May-03 16:00N 60°24' E 005°19'4 8.1
2018-May-03 15:30N 60°23' E 005°11'612.3
2018-May-03 15:00N 60°17' E 005°11'713.4
2018-May-03 14:29N 60°10' E 005°08'4 8.0
2018-May-03 14:00N 60°09' E 005°01'3 6.0
2018-May-03 13:30N 60°08' E 004°55'3 6.2
2018-May-03 13:01N 60°08' E 004°49'3 6.7
2018-May-03 12:30N 60°05' E 004°47'4 8.9
2018-May-03 12:00N 60°01' E 004°45'713.2
2018-May-03 11:29N 59°54' E 004°41'613.0
2018-May-03 11:00N 59°48' E 004°38'5711.9
2018-May-03 06:16N 58°52' E 004°29'413.0
2018-May-03 05:58N 58°49' E 004°34'612.8
2018-May-03 05:30N 58°44' E 004°42'612.4
2018-May-03 05:00N 58°40' E 004°50'611.8
2018-May-03 04:30N 58°35' E 004°58'511.2
2018-May-03 04:01N 58°31' E 005°05'611.9
2018-May-03 03:29N 58°26' E 005°12'611.6
2018-May-03 03:00N 58°23' E 005°20'611.3
2018-May-03 02:30N 58°19' E 005°28'611.1
2018-May-03 02:00N 58°15' E 005°36'612.2
2018-May-03 01:30N 58°11' E 005°44'612.0
2018-May-03 01:00N 58°08' E 005°54'611.8
2018-May-03 00:31N 58°06' E 006°04'612.1
2018-May-03 00:00N 58°04' E 006°15'612.8
2018-May-02 23:31N 58°01' E 006°26'714.2
2018-May-02 23:01N 57°56' E 006°36'714.2
2018-May-02 22:30N 57°52' E 006°46'713.2
2018-May-02 22:00N 57°49' E 006°57'713.2
2018-May-02 21:29N 57°48' E 007°10'713.3
2018-May-02 20:59N 57°47' E 007°22'613.2
2018-May-02 20:30N 57°47' E 007°34'713.8
2018-May-02 20:00N 57°46' E 007°47'713.4
2018-May-02 19:29N 57°46' E 008°00'613.3
2018-May-02 19:00N 57°46' E 008°12'713.5
2018-May-02 18:30N 57°47' E 008°25'1014.1
2018-May-02 17:46N 57°48' E 008°44'4213.0
2018-May-02 14:32N 57°49' E 010°03'113.8
2018-May-02 14:29N 57°49' E 010°04'713.5
2018-May-02 14:00N 57°49' E 010°17'713.3
2018-May-02 13:30N 57°49' E 010°29'611.6
2018-May-02 13:00N 57°50' E 010°40'510.7
2018-May-02 12:30N 57°45' E 010°46'612.2
2018-May-02 12:00N 57°39' E 010°45'612.3
2018-May-02 11:30N 57°33' E 010°44'510.3
2018-May-02 11:00N 57°28' E 010°40'4 9.0
2018-May-02 10:30N 57°25' E 010°34'1 2.8
2018-May-02 10:00N 57°25' E 010°37'0 0.8
2018-May-02 09:30N 57°25' E 010°36'0 0.3
2018-May-02 09:01N 57°25' E 010°36'2 3.6
2018-May-02 08:27N 57°26' E 010°33'0 0.0
2018-May-02 08:00N 57°26' E 010°33'0 0.0
2018-May-02 07:21N 57°26' E 010°33'0 0.0
2018-May-02 06:57N 57°26' E 010°33'0 0.0
2018-May-02 06:30N 57°26' E 010°33'0 0.0
2018-May-02 06:00N 57°26' E 010°33'0 0.0
2018-May-02 05:30N 57°26' E 010°33'0 0.0
2018-May-02 05:00N 57°26' E 010°33'0 0.0
2018-May-02 04:30N 57°26' E 010°33'0 0.0
2018-May-02 04:00N 57°26' E 010°33'0 0.0
2018-May-02 03:30N 57°26' E 010°33'0 0.0
2018-May-02 02:57N 57°26' E 010°33'0 0.0
2018-May-02 02:30N 57°26' E 010°33'0 0.0
2018-May-02 02:00N 57°26' E 010°33'0 0.0
2018-May-02 01:30N 57°26' E 010°33'0 0.0
2018-May-02 01:00N 57°26' E 010°33'0 0.0
2018-May-02 00:21N 57°26' E 010°33'0 0.0
2018-May-01 23:57N 57°26' E 010°33'0 0.0
2018-May-01 23:30N 57°26' E 010°33'0 0.0
2018-May-01 23:00N 57°26' E 010°33'0 0.0
2018-May-01 22:30N 57°26' E 010°33'0 0.0
2018-May-01 22:00N 57°26' E 010°33'0 0.0
2018-May-01 21:24N 57°26' E 010°33'0 0.0
2018-May-01 21:00N 57°26' E 010°33'0 0.0
2018-May-01 20:30N 57°26' E 010°33'0 0.0
2018-May-01 19:57N 57°26' E 010°33'0 0.0
2018-May-01 19:30N 57°26' E 010°33'0 0.0
2018-May-01 18:42N 57°26' E 010°33'0 0.0
2018-May-01 18:27N 57°26' E 010°33'0 0.0
2018-May-01 17:54N 57°26' E 010°33'  
Track history (hours):
 
Tides and Currents Weather Stations Pressure Air Temp Water Temp Dewpoint Dewpoint Depression Visibility Wind Speed Wind Dir Waves Ship Positions

N G Explorer

Last reported at 2018-May-11 17:26 UTC. Time now 2018-May-27 08:13 UTC.
Position N 70°41' E 020°12'.
Warning: this ship's position is 15 days out of date.

Length 112 m; draft 4.8 m.

Type: Passenger vessel. MMSI: 309336000.

Date/timePositionNaut miles runAvg speedWind from/ knotsBaromVisibWave heightAir tempDewpointWater temp
2018-May-11 17:26N 70°41' E 020°12'614.2
2018-May-11 17:00N 70°35' E 020°14'714.3
2018-May-11 16:30N 70°28' E 020°17'714.0
2018-May-11 16:00N 70°21' E 020°19'612.2
2018-May-11 15:30N 70°15' E 020°18'3 5.2
2018-May-11 15:00N 70°13' E 020°14'612.9
2018-May-11 14:30N 70°06' E 020°12'612.0
2018-May-11 14:00N 70°01' E 020°04'612.1
2018-May-11 13:30N 69°56' E 019°54'714.2
2018-May-11 13:00N 69°51' E 019°41'714.2
2018-May-11 12:30N 69°48' E 019°22'714.4
2018-May-11 11:59N 69°45' E 019°03'712.9
2018-May-11 11:29N 69°39' E 018°52'2 3.8
2018-May-11 10:59N 69°39' E 018°58'0 0.1
2018-May-11 10:29N 69°39' E 018°58'0 0.0
2018-May-11 09:59N 69°39' E 018°58'0 0.0
2018-May-11 09:29N 69°39' E 018°58'0 0.0
2018-May-11 08:59N 69°39' E 018°58'0 0.0
2018-May-11 08:29N 69°39' E 018°58'0 0.0
2018-May-11 07:59N 69°39' E 018°58'0 0.0
2018-May-11 07:29N 69°39' E 018°58'0 0.0
2018-May-11 06:59N 69°39' E 018°58'0 0.0
2018-May-11 06:29N 69°39' E 018°58'0 0.0
2018-May-11 05:59N 69°39' E 018°58'0 0.5
2018-May-11 05:30N 69°39' E 018°59'4 6.9
2018-May-11 04:59N 69°42' E 019°04'0 0.0
2018-May-11 04:29N 69°42' E 019°04'0 0.0
2018-May-11 03:59N 69°42' E 019°04'0 0.0
2018-May-11 03:29N 69°42' E 019°04'0 0.0
2018-May-11 03:00N 69°42' E 019°04'3 5.1
2018-May-11 02:30N 69°40' E 018°60'510.7
2018-May-11 02:00N 69°35' E 018°51'5 9.7
2018-May-11 01:30N 69°33' E 018°39'510.5
2018-May-11 01:00N 69°31' E 018°25'611.9
2018-May-11 00:29N 69°31' E 018°08'612.1
2018-May-11 00:00N 69°35' E 017°56'611.7
2018-May-10 23:30N 69°40' E 017°46'612.4
2018-May-10 23:00N 69°39' E 017°29'612.4
2018-May-10 22:29N 69°37' E 017°11'612.6
2018-May-10 22:00N 69°35' E 016°54'612.3
2018-May-10 21:30N 69°33' E 016°38'612.1
2018-May-10 21:00N 69°31' E 016°22'510.5
2018-May-10 20:30N 69°29' E 016°07'2 4.3
2018-May-10 20:00N 69°28' E 016°02'3 6.7
2018-May-10 19:30N 69°25' E 015°57'1 2.0
2018-May-10 19:00N 69°26' E 015°60'3 6.3
2018-May-10 18:30N 69°25' E 016°08'712.6
2018-May-10 17:59N 69°19' E 016°14'714.1
2018-May-10 17:30N 69°12' E 016°13'814.8
2018-May-10 16:59N 69°05' E 016°10'714.1
2018-May-10 16:30N 68°58' E 016°10'714.6
2018-May-10 16:00N 68°53' E 016°25'713.2
2018-May-10 15:30N 68°49' E 016°41'714.5
2018-May-10 15:00N 68°42' E 016°41'714.7
2018-May-10 14:30N 68°35' E 016°33'611.7
2018-May-10 14:00N 68°33' E 016°18'713.6
2018-May-10 13:30N 68°28' E 016°06'815.0
2018-May-10 13:00N 68°21' E 016°01'714.7
2018-May-10 12:30N 68°14' E 016°08'714.4
2018-May-10 12:00N 68°07' E 016°09'18 2.5
2018-May-10 04:48N 67°50' E 016°28'6 8.3
2018-May-10 04:04N 67°54' E 016°16'1 7.9
2018-May-10 03:58N 67°54' E 016°14'4 7.6
2018-May-10 03:29N 67°58' E 016°14'4 8.5
2018-May-10 02:58N 68°02' E 016°10'4 7.6
2018-May-10 02:29N 68°05' E 016°09'4 7.7
2018-May-10 02:01N 68°09' E 016°10'4 7.7
2018-May-10 01:30N 68°13' E 016°09'4 7.5
2018-May-10 01:00N 68°16' E 016°04'4 7.1
2018-May-10 00:30N 68°17' E 015°55'4 7.8
2018-May-10 00:00N 68°15' E 015°45'4 7.7
2018-May-09 23:30N 68°13' E 015°36'4 7.6
2018-May-09 23:00N 68°13' E 015°26'4 7.7
2018-May-09 22:30N 68°12' E 015°16'4 7.7
2018-May-09 22:00N 68°12' E 015°05'3 6.9
2018-May-09 21:30N 68°13' E 014°56'4 7.9
2018-May-09 21:00N 68°17' E 014°58'3 6.7
2018-May-09 20:30N 68°20' E 014°58'2 4.2
2018-May-09 20:00N 68°22' E 014°57'2 3.6
2018-May-09 19:30N 68°20' E 014°59'714.3
2018-May-09 19:00N 68°13' E 014°53'612.6
2018-May-09 18:30N 68°13' E 014°37'1 1.6
2018-May-09 17:59N 68°13' E 014°34'510.0
2018-May-09 17:30N 68°11' E 014°22'611.2
2018-May-09 17:00N 68°07' E 014°11'612.2
2018-May-09 16:30N 68°05' E 013°56'713.7
2018-May-09 16:00N 68°02' E 013°40'713.8
2018-May-09 15:30N 67°58' E 013°23'713.2
2018-May-09 15:00N 67°56' E 013°07'1 0.9
2018-May-09 14:22N 67°56' E 013°06'0 0.0
2018-May-09 13:57N 67°56' E 013°06'0 0.0
2018-May-09 13:30N 67°56' E 013°06'0 0.0
2018-May-09 13:00N 67°56' E 013°06'0 0.0
2018-May-09 12:30N 67°56' E 013°06'0 0.2
2018-May-09 12:00N 67°56' E 013°06'5 9.9
2018-May-09 11:30N 67°51' E 013°03'714.9
2018-May-09 11:00N 67°45' E 012°55'714.8
2018-May-09 10:30N 67°38' E 012°45'3 6.9
2018-May-09 10:00N 67°39' E 012°36'0 0.0
2018-May-09 09:30N 67°39' E 012°36'0 0.1
2018-May-09 09:00N 67°39' E 012°36'0 0.1
2018-May-09 08:30N 67°39' E 012°36'0 0.0
2018-May-09 08:00N 67°39' E 012°36'0 0.0
2018-May-09 07:30N 67°39' E 012°36'0 0.0
2018-May-09 07:00N 67°39' E 012°36'0 0.0
2018-May-09 06:30N 67°39' E 012°36'0 0.0
2018-May-09 06:00N 67°39' E 012°36'0 0.5
2018-May-09 05:30N 67°39' E 012°37'4 7.7
2018-May-09 05:00N 67°35' E 012°36'612.9
2018-May-09 04:30N 67°30' E 012°25'4010.4
2018-May-09 00:37N 66°52' E 011°54'110.3
2018-May-09 00:28N 66°50' E 011°54'510.3
2018-May-09 00:01N 66°45' E 011°53'510.1
2018-May-08 23:30N 66°40' E 011°52'510.3
2018-May-08 23:00N 66°35' E 011°51'510.4
2018-May-08 22:30N 66°30' E 011°50'510.7
2018-May-08 22:00N 66°25' E 011°53'4 8.3
2018-May-08 21:31N 66°25' E 012°03'5 9.8
2018-May-08 21:00N 66°30' E 012°06'1 1.1
2018-May-08 20:29N 66°30' E 012°06'0 0.0
2018-May-08 19:59N 66°30' E 012°06'0 0.0
2018-May-08 19:29N 66°30' E 012°06'0 0.0
2018-May-08 18:59N 66°30' E 012°06'0 0.0
2018-May-08 18:29N 66°30' E 012°06'0 0.0
2018-May-08 17:59N 66°30' E 012°06'0 0.0
2018-May-08 17:30N 66°30' E 012°06'0 0.4
2018-May-08 17:00N 66°30' E 012°06'3 5.9
2018-May-08 16:30N 66°28' E 012°12'3 5.8
2018-May-08 16:00N 66°27' E 012°19'3 5.6
2018-May-08 15:30N 66°27' E 012°26'3 5.7
2018-May-08 15:00N 66°26' E 012°33'3 6.1
2018-May-08 14:30N 66°26' E 012°40'611.9
2018-May-08 14:00N 66°28' E 012°54'5 9.4
2018-May-08 13:29N 66°32' E 012°59'511.1
2018-May-08 13:00N 66°33' E 013°12'611.6
2018-May-08 12:29N 66°33' E 013°27'3 5.5
2018-May-08 12:00N 66°33' E 013°34'5 0.8
2018-May-08 05:52N 66°36' E 013°44'7 7.5
2018-May-08 04:54N 66°33' E 013°27'4 9.2
2018-May-08 04:30N 66°33' E 013°18'3 7.0
2018-May-08 04:00N 66°33' E 013°09'4 7.4
2018-May-08 03:30N 66°33' E 013°00'3 6.7
2018-May-08 03:00N 66°29' E 012°59'4 8.1
2018-May-08 02:30N 66°25' E 012°59'4 8.1
2018-May-08 02:00N 66°21' E 012°57'4 8.3
2018-May-08 01:30N 66°17' E 012°55'4 8.0
2018-May-08 01:00N 66°13' E 012°53'4 8.0
2018-May-08 00:30N 66°09' E 012°50'4 8.2
2018-May-08 00:00N 66°06' E 012°44'4 8.2
2018-May-07 23:30N 66°03' E 012°37'4 8.1
2018-May-07 23:00N 65°60' E 012°31'4 8.5
2018-May-07 22:30N 65°56' E 012°25'4 8.1
2018-May-07 22:00N 65°53' E 012°22'4 8.4
2018-May-07 21:30N 65°48' E 012°21'5 8.7
2018-May-07 20:59N 65°44' E 012°17'4 7.9
2018-May-07 20:30N 65°43' E 012°08'5 8.6
2018-May-07 19:59N 65°44' E 011°57'0 0.2
2018-May-07 19:29N 65°44' E 011°57'0 0.0
2018-May-07 18:59N 65°44' E 011°57'0 0.0
2018-May-07 18:29N 65°44' E 011°57'0 0.1
2018-May-07 17:59N 65°44' E 011°57'0 0.0
2018-May-07 17:29N 65°44' E 011°57'0 0.1
2018-May-07 16:59N 65°44' E 011°57'0 0.0
2018-May-07 16:29N 65°44' E 011°57'0 0.0
2018-May-07 15:59N 65°44' E 011°57'0 0.1
2018-May-07 15:29N 65°44' E 011°57'0 0.0
2018-May-07 14:59N 65°44' E 011°57'0 0.0
2018-May-07 14:29N 65°44' E 011°57'0 0.1
2018-May-07 13:59N 65°44' E 011°57'0 0.1
2018-May-07 13:29N 65°44' E 011°57'0 0.1
2018-May-07 12:59N 65°44' E 011°57'0 0.0
2018-May-07 12:30N 65°44' E 011°57'0 0.1
2018-May-07 11:59N 65°44' E 011°57'0 0.1
2018-May-07 11:30N 65°44' E 011°57'0 0.0
2018-May-07 11:00N 65°44' E 011°57'4 8.8
2018-May-07 10:30N 65°43' E 012°08'612.5
2018-May-07 10:00N 65°37' E 012°15'713.7
2018-May-07 09:30N 65°32' E 012°24'714.0
2018-May-07 09:00N 65°27' E 012°37'4 1.9
2018-May-07 06:58N 65°28' E 012°46'0 0.0
2018-May-07 06:28N 65°28' E 012°46'0 0.0
2018-May-07 05:58N 65°28' E 012°46'0 0.0
2018-May-07 05:16N 65°28' E 012°46'0 1.0
2018-May-07 04:55N 65°28' E 012°46'4 9.8
2018-May-07 04:30N 65°27' E 012°36'612.1
2018-May-07 03:59N 65°31' E 012°25'511.0
2018-May-07 03:30N 65°36' E 012°18'510.2
2018-May-07 03:00N 65°34' E 012°07'510.4
2018-May-07 02:28N 65°30' E 011°59'5 9.8
2018-May-07 02:00N 65°25' E 011°57'5 9.6
2018-May-07 01:31N 65°21' E 012°03'611.0
2018-May-07 01:01N 65°16' E 011°57'611.1
2018-May-07 00:30N 65°11' E 011°51'511.0
2018-May-07 00:01N 65°06' E 011°48'611.1
2018-May-06 23:31N 65°01' E 011°41'510.9
2018-May-06 23:00N 64°57' E 011°31'611.3
2018-May-06 22:30N 64°54' E 011°20'511.0
2018-May-06 22:01N 64°50' E 011°11'612.0
2018-May-06 21:30N 64°46' E 011°01'511.0
2018-May-06 21:00N 64°43' E 010°51'611.6
2018-May-06 20:30N 64°39' E 010°41'4 7.7
2018-May-06 20:00N 64°36' E 010°34'4 7.6
2018-May-06 19:31N 64°34' E 010°28'4 7.6
2018-May-06 18:59N 64°30' E 010°23'612.6
2018-May-06 18:30N 64°24' E 010°26'611.4
2018-May-06 18:00N 64°19' E 010°24'611.6
2018-May-06 17:30N 64°14' E 010°15'714.1
2018-May-06 17:00N 64°08' E 010°06'611.1
2018-May-06 16:30N 64°03' E 010°03'611.5
2018-May-06 16:00N 63°59' E 009°54'713.8
2018-May-06 15:31N 63°53' E 009°45'714.7
2018-May-06 15:00N 63°47' E 009°34'611.8
2018-May-06 14:30N 63°44' E 009°23'611.4
2018-May-06 14:00N 63°41' E 009°12'713.7
2018-May-06 13:30N 63°41' E 008°56'916.1
2018-May-06 12:58N 63°39' E 008°37'715.5
2018-May-06 12:30N 63°38' E 008°22'814.8
2018-May-06 12:00N 63°34' E 008°06'714.0
2018-May-06 11:30N 63°30' E 007°54'5 9.4
2018-May-06 11:00N 63°26' E 007°49'0 0.1
2018-May-06 10:28N 63°26' E 007°49'0 0.0
2018-May-06 09:58N 63°26' E 007°49'0 0.0
2018-May-06 09:28N 63°26' E 007°49'0 0.0
2018-May-06 08:58N 63°26' E 007°49'0 0.0
2018-May-06 08:28N 63°26' E 007°49'0 0.0
2018-May-06 07:58N 63°26' E 007°49'0 0.0
2018-May-06 07:28N 63°26' E 007°49'0 0.0
2018-May-06 06:58N 63°26' E 007°49'0 0.0
2018-May-06 06:28N 63°26' E 007°49'0 0.0
2018-May-06 06:00N 63°26' E 007°49'3 6.0
2018-May-06 05:30N 63°24' E 007°44'612.4
2018-May-06 05:01N 63°19' E 007°37'612.8
2018-May-06 04:30N 63°13' E 007°44'611.1
2018-May-06 04:00N 63°08' E 007°40'3 5.2
2018-May-06 03:30N 63°07' E 007°35'3 6.0
2018-May-06 03:00N 63°05' E 007°30'4 7.6
2018-May-06 02:30N 63°04' E 007°22'4 7.2
2018-May-06 02:00N 63°03' E 007°15'4 7.1
2018-May-06 01:30N 63°01' E 007°07'3 7.0
2018-May-06 01:00N 63°00' E 006°60'4 6.9
2018-May-06 00:30N 62°59' E 006°53'3 6.7
2018-May-06 00:00N 62°56' E 006°49'3 7.0
2018-May-05 23:30N 62°53' E 006°44'4 7.1
2018-May-05 23:00N 62°50' E 006°40'4 6.9
2018-May-05 22:29N 62°47' E 006°36'3 7.0
2018-May-05 22:00N 62°44' E 006°32'4 7.3
2018-May-05 21:30N 62°41' E 006°27'4 7.2
2018-May-05 21:00N 62°38' E 006°23'510.6
2018-May-05 20:30N 62°35' E 006°14'5 9.2
2018-May-05 20:00N 62°31' E 006°09'4 7.3
2018-May-05 19:30N 62°28' E 006°04'815.1
2018-May-05 19:00N 62°27' E 005°48'815.6
2018-May-05 18:30N 62°26' E 005°31'816.2
2018-May-05 18:00N 62°22' E 005°16'816.1
2018-May-05 17:30N 62°17' E 005°02'815.0
2018-May-05 17:00N 62°11' E 004°52'611.4
2018-May-05 16:30N 62°05' E 004°57'612.5
2018-May-05 16:00N 62°02' E 005°09'612.2
2018-May-05 15:30N 61°56' E 005°08'5 9.3
2018-May-05 15:00N 61°54' E 005°17'713.5
2018-May-05 14:29N 61°55' E 005°31'714.0
2018-May-05 14:00N 61°53' E 005°45'713.0
2018-May-05 13:30N 61°52' E 005°58'714.3
2018-May-05 13:00N 61°51' E 006°13'714.2
2018-May-05 12:30N 61°49' E 006°28'10 1.3
2018-May-05 04:34N 61°52' E 006°49'810.6
2018-May-05 03:51N 61°51' E 006°33'512.2
2018-May-05 03:28N 61°50' E 006°23'613.5
2018-May-05 03:00N 61°51' E 006°10'713.7
2018-May-05 02:29N 61°52' E 005°55'612.2
2018-May-05 02:00N 61°53' E 005°43'713.6
2018-May-05 01:30N 61°55' E 005°29'713.4
2018-May-05 00:59N 61°54' E 005°15'3 5.9
2018-May-05 00:30N 61°51' E 005°16'613.1
2018-May-05 00:00N 61°48' E 005°05'713.2
2018-May-04 23:30N 61°42' E 004°58'713.0
2018-May-04 22:59N 61°35' E 004°57'612.3
2018-May-04 22:30N 61°29' E 004°59'612.2
2018-May-04 22:00N 61°23' E 005°01'510.4
2018-May-04 21:29N 61°18' E 004°60'510.5
2018-May-04 21:00N 61°13' E 004°59'714.5
2018-May-04 20:29N 61°05' E 005°01'815.6
2018-May-04 19:58N 61°00' E 004°49'714.6
2018-May-04 19:30N 60°53' E 004°46'714.7
2018-May-04 19:00N 60°46' E 004°46'816.0
2018-May-04 18:30N 60°39' E 004°54'714.4
2018-May-04 18:00N 60°33' E 005°01'815.6
2018-May-04 17:30N 60°28' E 005°15'5 9.1
2018-May-04 16:59N 60°24' E 005°19'0 0.0
2018-May-04 16:29N 60°24' E 005°19'0 0.0
2018-May-04 15:59N 60°24' E 005°19'0 0.0
2018-May-04 15:29N 60°24' E 005°19'0 0.0
2018-May-04 14:59N 60°24' E 005°19'0 0.0
2018-May-04 14:29N 60°24' E 005°19'0 0.0
2018-May-04 13:59N 60°24' E 005°19'0 0.0
2018-May-04 13:29N 60°24' E 005°19'0 0.0
2018-May-04 12:59N 60°24' E 005°19'0 0.0
2018-May-04 12:29N 60°24' E 005°19'0 0.0
2018-May-04 11:59N 60°24' E 005°19'0 0.0
2018-May-04 11:29N 60°24' E 005°19'0 0.0
2018-May-04 10:59N 60°24' E 005°19'0 0.0
2018-May-04 10:29N 60°24' E 005°19'0 0.0
2018-May-04 09:59N 60°24' E 005°19'0 0.0
2018-May-04 09:29N 60°24' E 005°19'0 0.0
2018-May-04 08:59N 60°24' E 005°19'0 0.0
2018-May-04 08:29N 60°24' E 005°19'0 0.0
2018-May-04 07:59N 60°24' E 005°19'0 0.0
2018-May-04 07:29N 60°24' E 005°19'0 0.0
2018-May-04 06:59N 60°24' E 005°19'0 0.0
2018-May-04 06:29N 60°24' E 005°19'0 0.1
2018-May-04 05:59N 60°24' E 005°19'0 0.0
2018-May-04 05:29N 60°24' E 005°19'0 0.0
2018-May-04 04:59N 60°24' E 005°19'0 0.0
2018-May-04 04:29N 60°24' E 005°19'0 0.0
2018-May-04 03:59N 60°24' E 005°19'0 0.0
2018-May-04 03:29N 60°24' E 005°19'0 0.0
2018-May-04 02:59N 60°24' E 005°19'0 0.0
2018-May-04 02:29N 60°24' E 005°19'0 0.0
2018-May-04 01:59N 60°24' E 005°19'0 0.0
2018-May-04 01:29N 60°24' E 005°19'0 0.0
2018-May-04 00:59N 60°24' E 005°19'0 0.0
2018-May-04 00:29N 60°24' E 005°19'0 0.0
2018-May-03 23:59N 60°24' E 005°19'0 0.0
2018-May-03 23:28N 60°24' E 005°19'0 0.0
2018-May-03 22:59N 60°24' E 005°19'0 0.0
2018-May-03 22:28N 60°24' E 005°19'0 0.0
2018-May-03 21:58N 60°24' E 005°19'0 0.0
2018-May-03 21:28N 60°24' E 005°19'0 0.0
2018-May-03 20:58N 60°24' E 005°19'0 0.0
2018-May-03 20:28N 60°24' E 005°19'0 0.0
2018-May-03 19:58N 60°24' E 005°19'0 0.0
2018-May-03 19:28N 60°24' E 005°19'0 0.0
2018-May-03 18:59N 60°24' E 005°19'0 0.0
2018-May-03 18:28N 60°24' E 005°19'0 0.0
2018-May-03 17:58N 60°24' E 005°19'0 0.0
2018-May-03 17:28N 60°24' E 005°19'0 0.0
2018-May-03 16:55N 60°24' E 005°19'0 0.0
2018-May-03 16:28N 60°24' E 005°19'0 0.0
2018-May-03 16:00N 60°24' E 005°19'4 8.1
2018-May-03 15:30N 60°23' E 005°11'612.3
2018-May-03 15:00N 60°17' E 005°11'713.4
2018-May-03 14:29N 60°10' E 005°08'4 8.0
2018-May-03 14:00N 60°09' E 005°01'3 6.0
2018-May-03 13:30N 60°08' E 004°55'3 6.2
2018-May-03 13:01N 60°08' E 004°49'3 6.7
2018-May-03 12:30N 60°05' E 004°47'4 8.9
2018-May-03 12:00N 60°01' E 004°45'713.2
2018-May-03 11:29N 59°54' E 004°41'613.0
2018-May-03 11:00N 59°48' E 004°38'5711.9
2018-May-03 06:16N 58°52' E 004°29'413.0
2018-May-03 05:58N 58°49' E 004°34'612.8
2018-May-03 05:30N 58°44' E 004°42'612.4
2018-May-03 05:00N 58°40' E 004°50'611.8
2018-May-03 04:30N 58°35' E 004°58'511.2
2018-May-03 04:01N 58°31' E 005°05'611.9
2018-May-03 03:29N 58°26' E 005°12'611.6
2018-May-03 03:00N 58°23' E 005°20'611.3
2018-May-03 02:30N 58°19' E 005°28'611.1
2018-May-03 02:00N 58°15' E 005°36'612.2
2018-May-03 01:30N 58°11' E 005°44'612.0
2018-May-03 01:00N 58°08' E 005°54'611.8
2018-May-03 00:31N 58°06' E 006°04'612.1
2018-May-03 00:00N 58°04' E 006°15'612.8
2018-May-02 23:31N 58°01' E 006°26'714.2
2018-May-02 23:01N 57°56' E 006°36'714.2
2018-May-02 22:30N 57°52' E 006°46'713.2
2018-May-02 22:00N 57°49' E 006°57'713.2
2018-May-02 21:29N 57°48' E 007°10'713.3
2018-May-02 20:59N 57°47' E 007°22'613.2
2018-May-02 20:30N 57°47' E 007°34'713.8
2018-May-02 20:00N 57°46' E 007°47'713.4
2018-May-02 19:29N 57°46' E 008°00'613.3
2018-May-02 19:00N 57°46' E 008°12'713.5
2018-May-02 18:30N 57°47' E 008°25'1014.1
2018-May-02 17:46N 57°48' E 008°44'4213.0
2018-May-02 14:32N 57°49' E 010°03'113.8
2018-May-02 14:29N 57°49' E 010°04'713.5
2018-May-02 14:00N 57°49' E 010°17'713.3
2018-May-02 13:30N 57°49' E 010°29'611.6
2018-May-02 13:00N 57°50' E 010°40'510.7
2018-May-02 12:30N 57°45' E 010°46'612.2
2018-May-02 12:00N 57°39' E 010°45'612.3
2018-May-02 11:30N 57°33' E 010°44'510.3
2018-May-02 11:00N 57°28' E 010°40'4 9.0
2018-May-02 10:30N 57°25' E 010°34'1 2.8
2018-May-02 10:00N 57°25' E 010°37'0 0.8
2018-May-02 09:30N 57°25' E 010°36'0 0.3
2018-May-02 09:01N 57°25' E 010°36'2 3.6
2018-May-02 08:27N 57°26' E 010°33'0 0.0
2018-May-02 08:00N 57°26' E 010°33'0 0.0
2018-May-02 07:21N 57°26' E 010°33'0 0.0
2018-May-02 06:57N 57°26' E 010°33'0 0.0
2018-May-02 06:30N 57°26' E 010°33'0 0.0
2018-May-02 06:00N 57°26' E 010°33'0 0.0
2018-May-02 05:30N 57°26' E 010°33'0 0.0
2018-May-02 05:00N 57°26' E 010°33'0 0.0
2018-May-02 04:30N 57°26' E 010°33'0 0.0
2018-May-02 04:00N 57°26' E 010°33'0 0.0
2018-May-02 03:30N 57°26' E 010°33'0 0.0
2018-May-02 02:57N 57°26' E 010°33'0 0.0
2018-May-02 02:30N 57°26' E 010°33'0 0.0
2018-May-02 02:00N 57°26' E 010°33'0 0.0
2018-May-02 01:30N 57°26' E 010°33'0 0.0
2018-May-02 01:00N 57°26' E 010°33'0 0.0
2018-May-02 00:21N 57°26' E 010°33'0 0.0
2018-May-01 23:57N 57°26' E 010°33'0 0.0
2018-May-01 23:30N 57°26' E 010°33'0 0.0
2018-May-01 23:00N 57°26' E 010°33'0 0.0
2018-May-01 22:30N 57°26' E 010°33'0 0.0
2018-May-01 22:00N 57°26' E 010°33'0 0.0
2018-May-01 21:24N 57°26' E 010°33'0 0.0
2018-May-01 21:00N 57°26' E 010°33'0 0.0
2018-May-01 20:30N 57°26' E 010°33'0 0.0
2018-May-01 19:57N 57°26' E 010°33'0 0.0
2018-May-01 19:30N 57°26' E 010°33'0 0.0
2018-May-01 18:42N 57°26' E 010°33'0 0.0
2018-May-01 18:27N 57°26' E 010°33'0 0.0
2018-May-01 17:54N 57°26' E 010°33'  

Dump ship's entire track history